Pride Of Kent — MQCJ2 — position and weather

sailwx.info

Track history (hours):
 
Tides and Currents Weather Stations Pressure Air Temp Water Temp Dewpoint Dewpoint Depression Visibility Wind Speed Wind Dir Waves Ship Positions

Pride Of Kent

Operator: P & O Ferries

Last reported at 2014-Dec-18 09:23 UTC. Time now 2014-Dec-18 10:31 UTC.
Position N 51°03' E 002°22'.

Length 180 m; draft 6 m.

Type: Passenger vessel. MMSI: 232009000.

Date/timePositionNaut miles runAvg speedWind from/ knotsBaromVisibWave heightAir tempDewpointWater temp
2014-Dec-18 09:23N 51°03' E 002°22'0 0.0
2014-Dec-18 08:29N 51°03' E 002°22'0 0.0
2014-Dec-18 07:28N 51°03' E 002°22'0 0.0
2014-Dec-18 06:33N 51°03' E 002°22'1 0.9
2014-Dec-18 05:33N 51°03' E 002°20'2 1.8
2014-Dec-18 04:34N 51°04' E 002°18'1817.6
2014-Dec-18 03:33N 51°02' E 001°50'4 3.6
2014-Dec-18 02:33N 50°58' E 001°52'0 0.0
2014-Dec-18 01:33N 50°58' E 001°52'0 0.1
2014-Dec-18 00:33N 50°58' E 001°51'1 1.0
2014-Dec-17 23:30N 50°58' E 001°50'1718.3
2014-Dec-17 22:33N 51°05' E 001°25'4 3.6
2014-Dec-17 21:29N 51°07' E 001°20'1313.5
2014-Dec-17 20:34N 51°00' E 001°37'9 7.4
2014-Dec-17 19:18N 50°58' E 001°51'6 8.6
2014-Dec-17 18:32N 50°59' E 001°41'1612.6
2014-Dec-17 17:18N 51°07' E 001°20'1 1.8
2014-Dec-17 16:33N 51°07' E 001°22'1918.7
2014-Dec-17 15:34N 50°58' E 001°48'2 1.8
2014-Dec-17 14:33N 50°58' E 001°51'1413.6
2014-Dec-17 13:33N 51°01' E 001°30'9 8.8
2014-Dec-17 12:32N 51°07' E 001°20'7 7.2
2014-Dec-17 11:33N 51°05' E 001°31'1514.3
2014-Dec-17 10:32N 50°58' E 001°51'3 2.7
2014-Dec-17 09:33N 50°58' E 001°47'1818.1
2014-Dec-17 08:32N 51°07' E 001°21'1 0.7
2014-Dec-17 07:30N 51°07' E 001°20'1414.5
2014-Dec-17 06:34N 51°01' E 001°40'8 7.7
2014-Dec-17 05:33N 50°58' E 001°51'7 6.5
2014-Dec-17 04:30N 50°59' E 001°40'1515.8
2014-Dec-17 03:33N 51°07' E 001°20'0 0.1
2014-Dec-17 02:20N 51°07' E 001°20'7 8.7
2014-Dec-17 01:33N 51°04' E 001°29'1514.7
2014-Dec-17 00:33N 50°58' E 001°51'0 0.2
2014-Dec-16 23:33N 50°58' E 001°51'1515.5
2014-Dec-16 22:34N 51°03' E 001°28'3 1.6
2014-Dec-16 20:34N 51°07' E 001°27'1717.0
2014-Dec-16 19:34N 50°58' E 001°51'2 2.4
2014-Dec-16 18:32N 50°58' E 001°47'1919.2
2014-Dec-16 17:33N 51°07' E 001°21'0 0.2
2014-Dec-16 16:32N 51°07' E 001°20'1717.1
2014-Dec-16 15:34N 50°59' E 001°43'5 5.0
2014-Dec-16 14:33N 50°58' E 001°51'1313.0
2014-Dec-16 13:33N 51°01' E 001°31'9 9.3
2014-Dec-16 12:33N 51°07' E 001°20'9 8.6
2014-Dec-16 11:33N 51°05' E 001°33'1313.1
2014-Dec-16 10:33N 50°58' E 001°51'5 4.5
2014-Dec-16 09:33N 50°58' E 001°44'1817.2
2014-Dec-16 08:31N 51°07' E 001°20'0 0.0
2014-Dec-16 07:20N 51°07' E 001°20'1114.1
2014-Dec-16 06:34N 51°02' E 001°35'1110.8
2014-Dec-16 05:33N 50°58' E 001°51'1 0.7
2014-Dec-16 04:33N 50°58' E 001°50'1817.7
2014-Dec-16 03:32N 51°06' E 001°24'3 3.1
2014-Dec-16 02:32N 51°07' E 001°20'4 3.7
2014-Dec-16 01:33N 51°06' E 001°25'1616.1
2014-Dec-16 00:33N 50°58' E 001°48'2 2.0
2014-Dec-15 23:34N 50°58' E 001°51'1312.9
2014-Dec-15 22:34N 51°03' E 001°32'3 1.3
2014-Dec-15 20:33N 51°05' E 001°30'1514.4
2014-Dec-15 19:32N 50°58' E 001°51'5 5.3
2014-Dec-15 18:33N 50°58' E 001°43'16 7.9
2014-Dec-15 16:33N 51°07' E 001°22'1818.4
2014-Dec-15 15:33N 50°58' E 001°48'2 2.1
2014-Dec-15 14:33N 50°58' E 001°51'1616.1
2014-Dec-15 13:33N 51°04' E 001°27'6 4.9
2014-Dec-15 12:25N 51°07' E 001°20'1113.0
2014-Dec-15 11:33N 51°02' E 001°36'1010.3
2014-Dec-15 10:33N 50°58' E 001°51'3 3.3
2014-Dec-15 09:33N 50°58' E 001°46'1918.2
2014-Dec-15 08:32N 51°07' E 001°20'0 0.2
2014-Dec-15 07:33N 51°07' E 001°20'1515.5
2014-Dec-15 06:33N 50°59' E 001°41'6 6.5
2014-Dec-15 05:33N 50°58' E 001°51'6 5.7
2014-Dec-15 04:33N 50°58' E 001°42'17 8.2
2014-Dec-15 02:32N 51°08' E 001°20'0 0.0
2014-Dec-15 01:32N 51°08' E 001°20'0 0.0
2014-Dec-15 00:33N 51°08' E 001°20'0 0.0
2014-Dec-14 23:29N 51°08' E 001°20'0 0.1
2014-Dec-14 22:33N 51°07' E 001°20'2 1.6
2014-Dec-14 21:34N 51°07' E 001°23'1716.8
2014-Dec-14 20:33N 50°58' E 001°45'3 3.4
2014-Dec-14 19:33N 50°58' E 001°51'1818.2
2014-Dec-14 18:33N 51°05' E 001°24'3 2.6
2014-Dec-14 17:16N 51°07' E 001°20'0 0.7
2014-Dec-14 16:34N 51°07' E 001°21'1615.9
2014-Dec-14 15:34N 50°59' E 001°42'6 5.5
2014-Dec-14 14:33N 50°58' E 001°51'1111.0
2014-Dec-14 13:33N 51°00' E 001°34'6 3.1
2014-Dec-14 11:34N 51°06' E 001°29'1615.9
2014-Dec-14 10:34N 50°58' E 001°51'0 0.5
2014-Dec-14 09:34N 50°58' E 001°50'1818.2
2014-Dec-14 08:33N 51°06' E 001°24'2 1.0
2014-Dec-14 06:34N 51°06' E 001°27'1716.6
2014-Dec-14 05:33N 50°58' E 001°51'3 2.8
2014-Dec-14 04:33N 50°58' E 001°47'1514.7
2014-Dec-14 03:34N 51°05' E 001°26'1 0.6
2014-Dec-14 01:33N 51°05' E 001°28'1514.7
2014-Dec-14 00:34N 50°58' E 001°49'2 1.6
2014-Dec-13 23:33N 50°58' E 001°51'1212.5
2014-Dec-13 22:33N 51°02' E 001°33'10 8.5
2014-Dec-13 21:27N 51°07' E 001°20'8 9.3
2014-Dec-13 20:34N 51°04' E 001°32'1313.2
2014-Dec-13 19:33N 50°58' E 001°51'2 1.7
2014-Dec-13 18:33N 50°58' E 001°48'1515.4
2014-Dec-13 17:33N 51°05' E 001°26'5 4.5
2014-Dec-13 16:33N 51°07' E 001°20'1716.8
2014-Dec-13 15:34N 50°59' E 001°43'5 4.6
2014-Dec-13 14:28N 50°58' E 001°51'1414.9
2014-Dec-13 13:33N 51°01' E 001°30'9 6.1
2014-Dec-13 12:07N 51°07' E 001°20'712.9
2014-Dec-13 11:34N 51°05' E 001°31'1414.1
2014-Dec-13 10:32N 50°58' E 001°51'4 4.0
2014-Dec-13 09:33N 50°58' E 001°45'1616.4
2014-Dec-13 08:33N 51°06' E 001°23'2 1.5
2014-Dec-13 07:20N 51°07' E 001°20'1215.6
2014-Dec-13 06:33N 51°02' E 001°37'10 8.8
2014-Dec-13 05:29N 50°58' E 001°51'4 4.3
2014-Dec-13 04:33N 50°58' E 001°45'1615.8
2014-Dec-13 03:33N 51°06' E 001°23'2 1.6
2014-Dec-13 02:04N 51°07' E 001°20'611.7
2014-Dec-13 01:34N 51°06' E 001°29'1414.4
2014-Dec-13 00:34N 50°58' E 001°49'2 1.7
2014-Dec-12 23:33N 50°58' E 001°51'1413.9
2014-Dec-12 22:34N 51°03' E 001°31'8 6.0
2014-Dec-12 21:14N 51°07' E 001°20'6 9.0
2014-Dec-12 20:34N 51°05' E 001°29'1515.4
2014-Dec-12 19:34N 50°58' E 001°51'3 2.6
2014-Dec-12 18:34N 50°58' E 001°47'1918.7
2014-Dec-12 17:33N 51°07' E 001°20'1 0.8
2014-Dec-12 16:33N 51°07' E 001°22'1717.4
2014-Dec-12 15:33N 50°58' E 001°45'4 3.9
2014-Dec-12 14:33N 50°58' E 001°51'1010.3
2014-Dec-12 13:33N 51°00' E 001°36'10 5.1
2014-Dec-12 11:33N 51°07' E 001°24'1717.0
2014-Dec-12 10:34N 50°58' E 001°46'3 3.0
2014-Dec-12 09:34N 50°58' E 001°51'1212.4
2014-Dec-12 08:34N 51°02' E 001°33'9 4.5
2014-Dec-12 06:29N 51°07' E 001°20'2 2.7
2014-Dec-12 05:33N 51°07' E 001°24'2 1.9
2014-Dec-12 04:33N 51°09' E 001°26'8 7.8
2014-Dec-12 03:34N 51°03' E 001°35'1211.7
2014-Dec-12 02:33N 50°58' E 001°52'0 0.0
2014-Dec-12 01:33N 50°58' E 001°52'0 0.0
2014-Dec-12 00:33N 50°58' E 001°52'9 8.7
2014-Dec-11 23:34N 50°59' E 001°38'9 4.6
2014-Dec-11 21:33N 51°06' E 001°29'1616.3
2014-Dec-11 20:33N 50°58' E 001°51'0 0.2
2014-Dec-11 19:32N 50°58' E 001°51'1717.5
2014-Dec-11 18:34N 51°05' E 001°26'4 3.6
2014-Dec-11 17:19N 51°07' E 001°20'1114.6
2014-Dec-11 16:34N 51°02' E 001°36'1110.7
2014-Dec-11 15:33N 50°58' E 001°52'0 0.0
2014-Dec-11 14:33N 50°58' E 001°52'1616.1
2014-Dec-11 13:34N 51°04' E 001°28'6 4.6
2014-Dec-11 12:16N 51°07' E 001°20'912.3
2014-Dec-11 11:33N 51°04' E 001°33'1313.2
2014-Dec-11 10:33N 50°58' E 001°52'0 0.0
2014-Dec-11 09:33N 50°58' E 001°52'8 8.1
2014-Dec-11 08:33N 50°58' E 001°39'15 7.0
2014-Dec-11 06:24N 51°07' E 001°20'911.0
2014-Dec-11 05:34N 51°03' E 001°33'1212.1
2014-Dec-11 04:33N 50°58' E 001°51'3 2.7
2014-Dec-11 03:33N 50°58' E 001°47'1918.9
2014-Dec-11 02:33N 51°07' E 001°20'3 3.3
2014-Dec-11 01:33N 51°06' E 001°25'1717.0
2014-Dec-11 00:33N 50°58' E 001°49'1 1.4
2014-Dec-10 23:33N 50°58' E 001°51'1515.2
2014-Dec-10 22:33N 51°03' E 001°28'7 5.5
2014-Dec-10 21:22N 51°07' E 001°20'1315.6
2014-Dec-10 20:33N 51°02' E 001°38'9 8.8
2014-Dec-10 19:33N 50°58' E 001°51'7 7.2
2014-Dec-10 18:33N 50°59' E 001°40'14 6.8
2014-Dec-10 16:34N 51°07' E 001°22'1717.4
2014-Dec-10 15:33N 50°58' E 001°46'3 2.9
2014-Dec-10 14:27N 50°58' E 001°51'1415.8
2014-Dec-10 13:34N 51°01' E 001°29'9 6.9
2014-Dec-10 12:17N 51°07' E 001°20'4 6.2
2014-Dec-10 11:33N 51°06' E 001°27'1717.1
2014-Dec-10 10:33N 50°58' E 001°51'2 1.5
2014-Dec-10 09:34N 50°58' E 001°48'1716.7
2014-Dec-10 08:33N 51°06' E 001°25'3 2.7
2014-Dec-10 07:20N 51°07' E 001°20'1114.3
2014-Dec-10 06:33N 51°03' E 001°36'1110.8
2014-Dec-10 05:34N 50°58' E 001°51'4 3.8
2014-Dec-10 04:33N 50°58' E 001°45'1818.3
2014-Dec-10 03:33N 51°07' E 001°20'0 0.1
2014-Dec-10 02:25N 51°07' E 001°20'4 4.2
2014-Dec-10 01:33N 51°07' E 001°26'2 2.4
2014-Dec-10 00:34N 51°08' E 001°29'1110.5
2014-Dec-09 23:34N 51°00' E 001°41'7 6.7
2014-Dec-09 22:33N 50°58' E 001°51'1212.1
2014-Dec-09 21:33N 51°02' E 001°33'8 4.2
2014-Dec-09 19:34N 51°07' E 001°22'1010.4
2014-Dec-09 18:33N 51°02' E 001°37'10 9.7
2014-Dec-09 17:33N 50°58' E 001°51'7 6.7
2014-Dec-09 16:33N 50°58' E 001°40'14 7.1
2014-Dec-09 14:33N 51°07' E 001°24'1616.5
2014-Dec-09 13:33N 50°58' E 001°45'3 3.3
2014-Dec-09 12:30N 50°58' E 001°51'1415.1
2014-Dec-09 11:33N 51°02' E 001°29'8 6.0
2014-Dec-09 10:15N 51°07' E 001°20'1013.9
2014-Dec-09 09:34N 51°04' E 001°34'1212.1
2014-Dec-09 08:33N 50°58' E 001°51'4 3.8
2014-Dec-09 07:33N 50°58' E 001°45'1817.9
2014-Dec-09 06:33N 51°07' E 001°20'5 2.3
2014-Dec-09 04:34N 51°06' E 001°27'1716.9
2014-Dec-09 03:33N 50°58' E 001°51'0 0.1
2014-Dec-09 02:33N 50°58' E 001°51'1615.8
2014-Dec-09 01:34N 51°04' E 001°28'6 4.9
2014-Dec-09 00:19N 51°07' E 001°20'1114.1
2014-Dec-08 23:33N 51°03' E 001°35'1111.0
2014-Dec-08 22:33N 50°58' E 001°51'6 6.0
2014-Dec-08 21:33N 50°58' E 001°42'16 8.1
2014-Dec-08 19:32N 51°07' E 001°20'1212.8
2014-Dec-08 18:33N 51°03' E 001°38'9 9.1
2014-Dec-08 17:33N 50°58' E 001°51'0 0.0
2014-Dec-08 16:29N 50°58' E 001°51'9 9.5
2014-Dec-08 15:33N 50°56' E 001°37'3 3.1
2014-Dec-08 14:33N 50°54' E 001°34'6 6.3
2014-Dec-08 13:33N 50°60' E 001°38'1313.4
2014-Dec-08 12:33N 51°07' E 001°20'0 0.1
2014-Dec-08 11:27N 51°07' E 001°20'1112.0
2014-Dec-08 10:33N 51°04' E 001°36'1111.1
2014-Dec-08 09:32N 50°58' E 001°51'  
Track history (hours):
 
Tides and Currents Weather Stations Pressure Air Temp Water Temp Dewpoint Dewpoint Depression Visibility Wind Speed Wind Dir Waves Ship Positions

Pride Of Kent

Operator: P & O Ferries

Last reported at 2014-Dec-18 09:23 UTC. Time now 2014-Dec-18 10:31 UTC.
Position N 51°03' E 002°22'.

Length 180 m; draft 6 m.

Type: Passenger vessel. MMSI: 232009000.

Date/timePositionNaut miles runAvg speedWind from/ knotsBaromVisibWave heightAir tempDewpointWater temp
2014-Dec-18 09:23N 51°03' E 002°22'0 0.0
2014-Dec-18 08:29N 51°03' E 002°22'0 0.0
2014-Dec-18 07:28N 51°03' E 002°22'0 0.0
2014-Dec-18 06:33N 51°03' E 002°22'1 0.9
2014-Dec-18 05:33N 51°03' E 002°20'2 1.8
2014-Dec-18 04:34N 51°04' E 002°18'1817.6
2014-Dec-18 03:33N 51°02' E 001°50'4 3.6
2014-Dec-18 02:33N 50°58' E 001°52'0 0.0
2014-Dec-18 01:33N 50°58' E 001°52'0 0.1
2014-Dec-18 00:33N 50°58' E 001°51'1 1.0
2014-Dec-17 23:30N 50°58' E 001°50'1718.3
2014-Dec-17 22:33N 51°05' E 001°25'4 3.6
2014-Dec-17 21:29N 51°07' E 001°20'1313.5
2014-Dec-17 20:34N 51°00' E 001°37'9 7.4
2014-Dec-17 19:18N 50°58' E 001°51'6 8.6
2014-Dec-17 18:32N 50°59' E 001°41'1612.6
2014-Dec-17 17:18N 51°07' E 001°20'1 1.8
2014-Dec-17 16:33N 51°07' E 001°22'1918.7
2014-Dec-17 15:34N 50°58' E 001°48'2 1.8
2014-Dec-17 14:33N 50°58' E 001°51'1413.6
2014-Dec-17 13:33N 51°01' E 001°30'9 8.8
2014-Dec-17 12:32N 51°07' E 001°20'7 7.2
2014-Dec-17 11:33N 51°05' E 001°31'1514.3
2014-Dec-17 10:32N 50°58' E 001°51'3 2.7
2014-Dec-17 09:33N 50°58' E 001°47'1818.1
2014-Dec-17 08:32N 51°07' E 001°21'1 0.7
2014-Dec-17 07:30N 51°07' E 001°20'1414.5
2014-Dec-17 06:34N 51°01' E 001°40'8 7.7
2014-Dec-17 05:33N 50°58' E 001°51'7 6.5
2014-Dec-17 04:30N 50°59' E 001°40'1515.8
2014-Dec-17 03:33N 51°07' E 001°20'0 0.1
2014-Dec-17 02:20N 51°07' E 001°20'7 8.7
2014-Dec-17 01:33N 51°04' E 001°29'1514.7
2014-Dec-17 00:33N 50°58' E 001°51'0 0.2
2014-Dec-16 23:33N 50°58' E 001°51'1515.5
2014-Dec-16 22:34N 51°03' E 001°28'3 1.6
2014-Dec-16 20:34N 51°07' E 001°27'1717.0
2014-Dec-16 19:34N 50°58' E 001°51'2 2.4
2014-Dec-16 18:32N 50°58' E 001°47'1919.2
2014-Dec-16 17:33N 51°07' E 001°21'0 0.2
2014-Dec-16 16:32N 51°07' E 001°20'1717.1
2014-Dec-16 15:34N 50°59' E 001°43'5 5.0
2014-Dec-16 14:33N 50°58' E 001°51'1313.0
2014-Dec-16 13:33N 51°01' E 001°31'9 9.3
2014-Dec-16 12:33N 51°07' E 001°20'9 8.6
2014-Dec-16 11:33N 51°05' E 001°33'1313.1
2014-Dec-16 10:33N 50°58' E 001°51'5 4.5
2014-Dec-16 09:33N 50°58' E 001°44'1817.2
2014-Dec-16 08:31N 51°07' E 001°20'0 0.0
2014-Dec-16 07:20N 51°07' E 001°20'1114.1
2014-Dec-16 06:34N 51°02' E 001°35'1110.8
2014-Dec-16 05:33N 50°58' E 001°51'1 0.7
2014-Dec-16 04:33N 50°58' E 001°50'1817.7
2014-Dec-16 03:32N 51°06' E 001°24'3 3.1
2014-Dec-16 02:32N 51°07' E 001°20'4 3.7
2014-Dec-16 01:33N 51°06' E 001°25'1616.1
2014-Dec-16 00:33N 50°58' E 001°48'2 2.0
2014-Dec-15 23:34N 50°58' E 001°51'1312.9
2014-Dec-15 22:34N 51°03' E 001°32'3 1.3
2014-Dec-15 20:33N 51°05' E 001°30'1514.4
2014-Dec-15 19:32N 50°58' E 001°51'5 5.3
2014-Dec-15 18:33N 50°58' E 001°43'16 7.9
2014-Dec-15 16:33N 51°07' E 001°22'1818.4
2014-Dec-15 15:33N 50°58' E 001°48'2 2.1
2014-Dec-15 14:33N 50°58' E 001°51'1616.1
2014-Dec-15 13:33N 51°04' E 001°27'6 4.9
2014-Dec-15 12:25N 51°07' E 001°20'1113.0
2014-Dec-15 11:33N 51°02' E 001°36'1010.3
2014-Dec-15 10:33N 50°58' E 001°51'3 3.3
2014-Dec-15 09:33N 50°58' E 001°46'1918.2
2014-Dec-15 08:32N 51°07' E 001°20'0 0.2
2014-Dec-15 07:33N 51°07' E 001°20'1515.5
2014-Dec-15 06:33N 50°59' E 001°41'6 6.5
2014-Dec-15 05:33N 50°58' E 001°51'6 5.7
2014-Dec-15 04:33N 50°58' E 001°42'17 8.2
2014-Dec-15 02:32N 51°08' E 001°20'0 0.0
2014-Dec-15 01:32N 51°08' E 001°20'0 0.0
2014-Dec-15 00:33N 51°08' E 001°20'0 0.0
2014-Dec-14 23:29N 51°08' E 001°20'0 0.1
2014-Dec-14 22:33N 51°07' E 001°20'2 1.6
2014-Dec-14 21:34N 51°07' E 001°23'1716.8
2014-Dec-14 20:33N 50°58' E 001°45'3 3.4
2014-Dec-14 19:33N 50°58' E 001°51'1818.2
2014-Dec-14 18:33N 51°05' E 001°24'3 2.6
2014-Dec-14 17:16N 51°07' E 001°20'0 0.7
2014-Dec-14 16:34N 51°07' E 001°21'1615.9
2014-Dec-14 15:34N 50°59' E 001°42'6 5.5
2014-Dec-14 14:33N 50°58' E 001°51'1111.0
2014-Dec-14 13:33N 51°00' E 001°34'6 3.1
2014-Dec-14 11:34N 51°06' E 001°29'1615.9
2014-Dec-14 10:34N 50°58' E 001°51'0 0.5
2014-Dec-14 09:34N 50°58' E 001°50'1818.2
2014-Dec-14 08:33N 51°06' E 001°24'2 1.0
2014-Dec-14 06:34N 51°06' E 001°27'1716.6
2014-Dec-14 05:33N 50°58' E 001°51'3 2.8
2014-Dec-14 04:33N 50°58' E 001°47'1514.7
2014-Dec-14 03:34N 51°05' E 001°26'1 0.6
2014-Dec-14 01:33N 51°05' E 001°28'1514.7
2014-Dec-14 00:34N 50°58' E 001°49'2 1.6
2014-Dec-13 23:33N 50°58' E 001°51'1212.5
2014-Dec-13 22:33N 51°02' E 001°33'10 8.5
2014-Dec-13 21:27N 51°07' E 001°20'8 9.3
2014-Dec-13 20:34N 51°04' E 001°32'1313.2
2014-Dec-13 19:33N 50°58' E 001°51'2 1.7
2014-Dec-13 18:33N 50°58' E 001°48'1515.4
2014-Dec-13 17:33N 51°05' E 001°26'5 4.5
2014-Dec-13 16:33N 51°07' E 001°20'1716.8
2014-Dec-13 15:34N 50°59' E 001°43'5 4.6
2014-Dec-13 14:28N 50°58' E 001°51'1414.9
2014-Dec-13 13:33N 51°01' E 001°30'9 6.1
2014-Dec-13 12:07N 51°07' E 001°20'712.9
2014-Dec-13 11:34N 51°05' E 001°31'1414.1
2014-Dec-13 10:32N 50°58' E 001°51'4 4.0
2014-Dec-13 09:33N 50°58' E 001°45'1616.4
2014-Dec-13 08:33N 51°06' E 001°23'2 1.5
2014-Dec-13 07:20N 51°07' E 001°20'1215.6
2014-Dec-13 06:33N 51°02' E 001°37'10 8.8
2014-Dec-13 05:29N 50°58' E 001°51'4 4.3
2014-Dec-13 04:33N 50°58' E 001°45'1615.8
2014-Dec-13 03:33N 51°06' E 001°23'2 1.6
2014-Dec-13 02:04N 51°07' E 001°20'611.7
2014-Dec-13 01:34N 51°06' E 001°29'1414.4
2014-Dec-13 00:34N 50°58' E 001°49'2 1.7
2014-Dec-12 23:33N 50°58' E 001°51'1413.9
2014-Dec-12 22:34N 51°03' E 001°31'8 6.0
2014-Dec-12 21:14N 51°07' E 001°20'6 9.0
2014-Dec-12 20:34N 51°05' E 001°29'1515.4
2014-Dec-12 19:34N 50°58' E 001°51'3 2.6
2014-Dec-12 18:34N 50°58' E 001°47'1918.7
2014-Dec-12 17:33N 51°07' E 001°20'1 0.8
2014-Dec-12 16:33N 51°07' E 001°22'1717.4
2014-Dec-12 15:33N 50°58' E 001°45'4 3.9
2014-Dec-12 14:33N 50°58' E 001°51'1010.3
2014-Dec-12 13:33N 51°00' E 001°36'10 5.1
2014-Dec-12 11:33N 51°07' E 001°24'1717.0
2014-Dec-12 10:34N 50°58' E 001°46'3 3.0
2014-Dec-12 09:34N 50°58' E 001°51'1212.4
2014-Dec-12 08:34N 51°02' E 001°33'9 4.5
2014-Dec-12 06:29N 51°07' E 001°20'2 2.7
2014-Dec-12 05:33N 51°07' E 001°24'2 1.9
2014-Dec-12 04:33N 51°09' E 001°26'8 7.8
2014-Dec-12 03:34N 51°03' E 001°35'1211.7
2014-Dec-12 02:33N 50°58' E 001°52'0 0.0
2014-Dec-12 01:33N 50°58' E 001°52'0 0.0
2014-Dec-12 00:33N 50°58' E 001°52'9 8.7
2014-Dec-11 23:34N 50°59' E 001°38'9 4.6
2014-Dec-11 21:33N 51°06' E 001°29'1616.3
2014-Dec-11 20:33N 50°58' E 001°51'0 0.2
2014-Dec-11 19:32N 50°58' E 001°51'1717.5
2014-Dec-11 18:34N 51°05' E 001°26'4 3.6
2014-Dec-11 17:19N 51°07' E 001°20'1114.6
2014-Dec-11 16:34N 51°02' E 001°36'1110.7
2014-Dec-11 15:33N 50°58' E 001°52'0 0.0
2014-Dec-11 14:33N 50°58' E 001°52'1616.1
2014-Dec-11 13:34N 51°04' E 001°28'6 4.6
2014-Dec-11 12:16N 51°07' E 001°20'912.3
2014-Dec-11 11:33N 51°04' E 001°33'1313.2
2014-Dec-11 10:33N 50°58' E 001°52'0 0.0
2014-Dec-11 09:33N 50°58' E 001°52'8 8.1
2014-Dec-11 08:33N 50°58' E 001°39'15 7.0
2014-Dec-11 06:24N 51°07' E 001°20'911.0
2014-Dec-11 05:34N 51°03' E 001°33'1212.1
2014-Dec-11 04:33N 50°58' E 001°51'3 2.7
2014-Dec-11 03:33N 50°58' E 001°47'1918.9
2014-Dec-11 02:33N 51°07' E 001°20'3 3.3
2014-Dec-11 01:33N 51°06' E 001°25'1717.0
2014-Dec-11 00:33N 50°58' E 001°49'1 1.4
2014-Dec-10 23:33N 50°58' E 001°51'1515.2
2014-Dec-10 22:33N 51°03' E 001°28'7 5.5
2014-Dec-10 21:22N 51°07' E 001°20'1315.6
2014-Dec-10 20:33N 51°02' E 001°38'9 8.8
2014-Dec-10 19:33N 50°58' E 001°51'7 7.2
2014-Dec-10 18:33N 50°59' E 001°40'14 6.8
2014-Dec-10 16:34N 51°07' E 001°22'1717.4
2014-Dec-10 15:33N 50°58' E 001°46'3 2.9
2014-Dec-10 14:27N 50°58' E 001°51'1415.8
2014-Dec-10 13:34N 51°01' E 001°29'9 6.9
2014-Dec-10 12:17N 51°07' E 001°20'4 6.2
2014-Dec-10 11:33N 51°06' E 001°27'1717.1
2014-Dec-10 10:33N 50°58' E 001°51'2 1.5
2014-Dec-10 09:34N 50°58' E 001°48'1716.7
2014-Dec-10 08:33N 51°06' E 001°25'3 2.7
2014-Dec-10 07:20N 51°07' E 001°20'1114.3
2014-Dec-10 06:33N 51°03' E 001°36'1110.8
2014-Dec-10 05:34N 50°58' E 001°51'4 3.8
2014-Dec-10 04:33N 50°58' E 001°45'1818.3
2014-Dec-10 03:33N 51°07' E 001°20'0 0.1
2014-Dec-10 02:25N 51°07' E 001°20'4 4.2
2014-Dec-10 01:33N 51°07' E 001°26'2 2.4
2014-Dec-10 00:34N 51°08' E 001°29'1110.5
2014-Dec-09 23:34N 51°00' E 001°41'7 6.7
2014-Dec-09 22:33N 50°58' E 001°51'1212.1
2014-Dec-09 21:33N 51°02' E 001°33'8 4.2
2014-Dec-09 19:34N 51°07' E 001°22'1010.4
2014-Dec-09 18:33N 51°02' E 001°37'10 9.7
2014-Dec-09 17:33N 50°58' E 001°51'7 6.7
2014-Dec-09 16:33N 50°58' E 001°40'14 7.1
2014-Dec-09 14:33N 51°07' E 001°24'1616.5
2014-Dec-09 13:33N 50°58' E 001°45'3 3.3
2014-Dec-09 12:30N 50°58' E 001°51'1415.1
2014-Dec-09 11:33N 51°02' E 001°29'8 6.0
2014-Dec-09 10:15N 51°07' E 001°20'1013.9
2014-Dec-09 09:34N 51°04' E 001°34'1212.1
2014-Dec-09 08:33N 50°58' E 001°51'4 3.8
2014-Dec-09 07:33N 50°58' E 001°45'1817.9
2014-Dec-09 06:33N 51°07' E 001°20'5 2.3
2014-Dec-09 04:34N 51°06' E 001°27'1716.9
2014-Dec-09 03:33N 50°58' E 001°51'0 0.1
2014-Dec-09 02:33N 50°58' E 001°51'1615.8
2014-Dec-09 01:34N 51°04' E 001°28'6 4.9
2014-Dec-09 00:19N 51°07' E 001°20'1114.1
2014-Dec-08 23:33N 51°03' E 001°35'1111.0
2014-Dec-08 22:33N 50°58' E 001°51'6 6.0
2014-Dec-08 21:33N 50°58' E 001°42'16 8.1
2014-Dec-08 19:32N 51°07' E 001°20'1212.8
2014-Dec-08 18:33N 51°03' E 001°38'9 9.1
2014-Dec-08 17:33N 50°58' E 001°51'0 0.0
2014-Dec-08 16:29N 50°58' E 001°51'9 9.5
2014-Dec-08 15:33N 50°56' E 001°37'3 3.1
2014-Dec-08 14:33N 50°54' E 001°34'6 6.3
2014-Dec-08 13:33N 50°60' E 001°38'1313.4
2014-Dec-08 12:33N 51°07' E 001°20'0 0.1
2014-Dec-08 11:27N 51°07' E 001°20'1112.0
2014-Dec-08 10:33N 51°04' E 001°36'1111.1
2014-Dec-08 09:32N 50°58' E 001°51'  

Dump ship's entire track history